Time;durP1;ratioP1;P1;durP2;ratioP2;P2;SDS_P1;SDS_P2;PMS_P1;PMS_P2;Temp;Humidity;BMP_temperature;BMP_pressure;BME280_temperature;BME280_humidity;BME280_pressure;Samples;Min_cycle;Max_cycle;Signal;HPM_P1;HPM_P2
2023/09/29 00:00:35;;;;;;;3.03;1.80;;;;;;;-146.24;98.96;47015.28;5093845;28;20218;-84
2023/09/29 00:03:04;;;;;;;1.73;1.63;;;;;;;-146.24;99.21;47009.50;5093785;28;20239;-84
2023/09/29 00:05:33;;;;;;;3.37;2.27;;;;;;;-146.24;100.00;46944.28;5093959;28;20206;-85
2023/09/29 00:08:02;;;;;;;2.90;1.90;;;;;;;-146.24;100.00;46978.81;5093712;28;20202;-84
2023/09/29 00:10:30;;;;;;;5.07;2.07;;;;;;;-146.24;99.28;46982.66;5093805;28;20203;-84
2023/09/29 00:12:57;;;;;;;4.33;2.00;;;;;;;-146.24;99.76;46986.50;5093983;28;20201;-83
2023/09/29 00:15:24;;;;;;;2.87;1.80;;;;;;;-146.24;100.00;46994.16;5093616;28;20225;-84
2023/09/29 00:17:51;;;;;;;1.37;1.33;;;;;;;-146.24;100.00;46969.22;5093730;28;20236;-83
2023/09/29 00:20:23;;;;;;;1.73;1.63;;;;;;;-146.24;99.96;46978.81;5093153;28;20638;-83
2023/09/29 00:22:52;;;;;;;4.70;2.27;;;;;;;-146.24;99.94;46994.16;5093320;28;20206;-84
2023/09/29 00:25:21;;;;;;;2.20;2.00;;;;;;;-146.24;100.00;46980.72;5093450;28;20200;-84
2023/09/29 00:27:48;;;;;;;2.03;1.83;;;;;;;-146.24;100.00;47005.69;5093615;28;20219;-84
2023/09/29 00:30:15;;;;;;;7.20;2.07;;;;;;;-146.24;100.00;47055.56;5093244;28;20194;-84
2023/09/29 00:32:46;;;;;;;2.27;1.87;;;;;;;-146.24;100.00;46982.66;5092758;28;20203;-85
2023/09/29 00:35:19;;;;;;;6.93;2.37;;;;;;;-146.24;100.00;46978.81;5093138;28;20233;-84
2023/09/29 00:37:47;;;;;;;1.70;1.60;;;;;;;-146.24;100.00;47030.63;5093099;28;20216;-83
2023/09/29 00:40:14;;;;;;;2.03;1.87;;;;;;;-146.24;100.00;46986.50;5093356;28;20205;-83
2023/09/29 00:42:44;;;;;;;4.87;2.30;;;;;;;-146.24;100.00;46988.41;5092832;28;20209;-83
2023/09/29 00:45:12;;;;;;;3.93;2.00;;;;;;;-146.24;100.00;47005.69;5093273;28;20198;-84
2023/09/29 00:47:39;;;;;;;3.43;2.07;;;;;;;-146.24;100.00;46984.56;5092491;28;20194;-83
2023/09/29 00:50:10;;;;;;;9.97;2.00;;;;;;;-146.24;100.00;46998.00;5092609;28;20300;-84
2023/09/29 00:52:39;;;;;;;2.17;1.97;;;;;;;-146.24;100.00;47003.75;5092581;28;20270;-84
2023/09/29 00:55:11;;;;;;;2.00;1.70;;;;;;;-146.24;100.00;46976.91;5092972;28;20653;-83
2023/09/29 00:57:40;;;;;;;1.80;1.70;;;;;;;-146.24;100.00;46994.16;5093089;28;20290;-84
2023/09/29 01:00:18;;;;;;;3.90;1.93;;;;;;;-146.24;100.00;47001.84;5093164;28;20193;-83
2023/09/29 01:02:45;;;;;;;1.70;1.57;;;;;;;-146.24;100.00;46999.91;5091411;28;20245;-84
2023/09/29 01:05:13;;;;;;;3.67;1.80;;;;;;;-146.24;100.00;46994.16;5093464;28;20204;-84
2023/09/29 01:07:41;;;;;;;5.03;2.33;;;;;;;-146.24;100.00;46994.16;5093143;28;20222;-84
2023/09/29 01:10:10;;;;;;;2.27;1.83;;;;;;;-146.24;100.00;47003.75;5099396;28;20198;-82
2023/09/29 01:12:39;;;;;;;1.97;1.87;;;;;;;-146.24;100.00;46980.72;5098312;28;20671;-83
2023/09/29 01:15:12;;;;;;;1.60;1.43;;;;;;;-146.24;100.00;47009.50;5092243;28;20256;-83
2023/09/29 01:17:41;;;;;;;7.47;1.97;;;;;;;-146.24;100.00;46986.50;5092694;28;20213;-84
2023/09/29 01:20:16;;;;;;;1.53;1.40;;;;;;;-146.24;100.00;46965.38;5092887;28;20628;-83
2023/09/29 01:22:47;;;;;;;1.40;1.33;;;;;;;-146.24;100.00;46963.47;5092726;28;20566;-84
2023/09/29 01:25:17;;;;;;;1.73;1.40;;;;;;;-146.24;100.00;47032.53;5092268;28;20194;-83
2023/09/29 01:27:45;;;;;;;1.70;1.50;;;;;;;-146.24;100.00;46967.31;5092831;28;20291;-81
2023/09/29 01:30:14;;;;;;;2.43;1.53;;;;;;;-146.24;100.00;46990.31;5092136;28;20202;-83
2023/09/29 01:32:42;;;;;;;1.70;1.60;;;;;;;-146.24;100.00;46992.25;5092293;28;20295;-83
2023/09/29 01:35:11;;;;;;;6.17;1.40;;;;;;;-146.24;100.00;46990.31;5092143;28;20251;-83
2023/09/29 01:37:42;;;;;;;1.60;1.50;;;;;;;-146.24;100.00;46967.31;5092462;28;20263;-83
2023/09/29 01:40:11;;;;;;;3.67;1.70;;;;;;;-146.24;100.00;46984.56;5092535;28;20193;-83
2023/09/29 01:42:40;;;;;;;2.17;1.63;;;;;;;-146.24;100.00;47051.72;5092636;28;20203;-84
2023/09/29 01:45:15;;;;;;;1.80;1.70;;;;;;;-146.24;100.00;46982.66;5092531;28;20648;-83
2023/09/29 01:47:45;;;;;;;2.60;1.80;;;;;;;-146.24;100.00;47009.50;5092853;28;20190;-83
2023/09/29 01:50:14;;;;;;;1.70;1.60;;;;;;;-146.24;100.00;46978.81;5092644;28;20302;-83
2023/09/29 01:52:42;;;;;;;1.30;1.30;;;;;;;-146.24;100.00;46998.00;5093103;28;20217;-84
2023/09/29 01:55:11;;;;;;;50.20;20.23;;;;;;;-146.24;100.00;47021.03;5093047;28;20226;-83
2023/09/29 01:57:39;;;;;;;9.80;3.77;;;;;;;-146.24;100.00;46978.81;5100198;28;20233;-84
2023/09/29 02:00:18;;;;;;;2.07;1.70;;;;;;;-146.24;100.00;46955.78;5112265;28;20226;-84
2023/09/29 02:02:46;;;;;;;7.50;1.67;;;;;;;-146.24;100.00;46944.28;5113692;28;20294;-83
2023/09/29 02:05:16;;;;;;;1.17;1.17;;;;;;;-146.24;100.00;46971.16;5113910;28;20255;-83
2023/09/29 02:07:43;;;;;;;5.30;2.13;;;;;;;-146.24;100.00;46978.81;5097407;28;20232;-85
2023/09/29 02:10:11;;;;;;;1.90;1.70;;;;;;;-146.24;100.00;46982.66;5095488;28;20193;-85
2023/09/29 02:12:46;;;;;;;1.57;1.47;;;;;;;-146.24;100.00;46982.66;5094408;28;20674;-84
2023/09/29 02:15:14;;;;;;;3.17;1.97;;;;;;;-146.24;100.00;46998.00;5094718;28;20240;-84
2023/09/29 02:17:41;;;;;;;2.83;1.57;;;;;;;-146.24;100.00;46976.91;5092040;28;20681;-83
2023/09/29 02:20:12;;;;;;;1.30;1.30;;;;;;;-146.24;100.00;46959.63;5101842;28;20546;-83
2023/09/29 02:22:39;;;;;;;1.50;1.33;;;;;;;-146.24;100.00;46992.25;5099091;28;20681;-84
2023/09/29 02:25:09;;;;;;;3.13;1.40;;;;;;;-146.24;100.00;47042.13;5093856;28;20210;-85
2023/09/29 02:27:36;;;;;;;2.40;1.47;;;;;;;-146.24;100.00;46994.16;5091426;28;20602;-83
2023/09/29 02:30:08;;;;;;;1.63;1.30;;;;;;;-146.24;100.00;47009.50;5090710;28;20202;-83
2023/09/29 02:32:36;;;;;;;1.70;1.50;;;;;;;-146.24;100.00;46984.56;5091210;28;20312;-83
2023/09/29 02:35:06;;;;;;;2.90;1.23;;;;;;;-146.24;100.00;46992.25;5091537;28;20299;-85
2023/09/29 02:37:33;;;;;;;1.37;1.37;;;;;;;-146.24;100.00;46996.09;5091358;28;20251;-84
2023/09/29 02:40:04;;;;;;;6.47;1.97;;;;;;;-146.24;100.00;46982.66;5091426;28;20205;-84
2023/09/29 02:42:31;;;;;;;2.07;1.90;;;;;;;-146.24;100.00;47001.84;5090834;28;20194;-83
2023/09/29 02:44:58;;;;;;;4.27;1.57;;;;;;;-146.24;100.00;46976.91;5090686;28;20267;-86
2023/09/29 02:47:27;;;;;;;2.00;1.43;;;;;;;-146.24;100.00;46944.28;5090411;28;20212;-82
2023/09/29 02:49:55;;;;;;;5.70;1.43;;;;;;;-146.24;100.00;46950.03;5090373;28;20198;-85
2023/09/29 02:52:22;;;;;;;5.10;1.67;;;;;;;-146.24;100.00;47001.84;5090769;28;20864;-82
2023/09/29 02:54:49;;;;;;;10.03;1.90;;;;;;;-146.24;98.42;46986.50;5090438;28;20234;-83
2023/09/29 02:57:17;;;;;;;1.80;1.70;;;;;;;-146.24;98.19;47044.06;5090956;28;20217;-85
2023/09/29 02:59:46;;;;;;;1.53;1.43;;;;;;;-146.24;97.88;46982.66;5090657;28;20199;-83
2023/09/29 03:02:13;;;;;;;1.57;1.47;;;;;;;-146.24;96.77;46986.50;5089932;28;20615;-84
2023/09/29 03:04:43;;;;;;;3.40;1.57;;;;;;;-146.24;95.77;47001.84;5090221;28;20278;-85
2023/09/29 03:07:10;;;;;;;1.20;1.20;;;;;;;-146.24;94.63;46957.72;5090556;28;20564;-84
2023/09/29 03:09:38;;;;;;;1.67;1.53;;;;;;;-146.24;94.88;46976.91;5090488;28;20294;-85
2023/09/29 03:12:06;;;;;;;3.70;1.27;;;;;;;-146.24;95.39;46980.72;5090392;28;20278;-83
2023/09/29 03:14:33;;;;;;;6.40;1.63;;;;;;;-146.24;95.33;46967.31;5090417;28;20712;-84
2023/09/29 03:17:00;;;;;;;1.27;1.20;;;;;;;-146.24;96.75;46994.16;5090753;28;20292;-85
2023/09/29 03:19:27;;;;;;;3.20;1.43;;;;;;;-146.24;97.16;46967.31;5090376;28;20201;-84
2023/09/29 03:21:56;;;;;;;6.77;1.47;;;;;;;-146.24;97.60;46988.41;5090761;28;20225;-84
2023/09/29 03:24:26;;;;;;;5.17;1.30;;;;;;;-146.24;97.16;46969.22;5090897;28;20256;-84
2023/09/29 03:26:53;;;;;;;1.50;1.43;;;;;;;-146.24;97.74;46978.81;5093019;28;20194;-84
2023/09/29 03:29:20;;;;;;;2.47;1.57;;;;;;;-146.24;98.45;46971.16;5089907;28;20198;-83
2023/09/29 03:31:49;;;;;;;3.20;1.67;;;;;;;-146.24;98.50;46988.41;5089978;28;20651;-83
2023/09/29 03:34:19;;;;;;;2.10;1.97;;;;;;;-146.24;98.37;46988.41;5089782;28;20276;-83
2023/09/29 03:36:46;;;;;;;6.00;1.63;;;;;;;-146.24;99.14;46961.53;5089726;28;20236;-85
2023/09/29 03:39:17;;;;;;;3.17;1.63;;;;;;;-146.24;99.59;46982.66;5090356;28;20198;-84
2023/09/29 03:41:44;;;;;;;1.90;1.70;;;;;;;-146.24;100.00;47005.69;5091147;28;20204;-83
2023/09/29 03:44:13;;;;;;;2.00;1.87;;;;;;;-146.24;100.00;46963.47;5089908;28;20302;-82
2023/09/29 03:46:40;;;;;;;1.90;1.50;;;;;;;-146.24;99.38;47044.06;5090214;28;20224;-84
2023/09/29 03:49:10;;;;;;;3.40;1.33;;;;;;;-146.24;99.03;47036.38;5090043;28;20263;-83
2023/09/29 03:51:38;;;;;;;2.20;1.80;;;;;;;-146.24;99.08;46988.41;5089541;28;20190;-83
2023/09/29 03:54:09;;;;;;;3.53;2.00;;;;;;;-146.24;100.00;46963.47;5089875;28;20198;-83
2023/09/29 03:56:38;;;;;;;1.30;1.20;;;;;;;-146.24;100.00;46986.50;5089802;28;20220;-85
2023/09/29 03:59:05;;;;;;;5.40;1.97;;;;;;;-146.24;100.00;46994.16;5090280;28;20312;-84
2023/09/29 04:01:32;;;;;;;1.43;1.43;;;;;;;-146.24;100.00;46976.91;5090029;28;20302;-83
2023/09/29 04:04:01;;;;;;;2.67;2.10;;;;;;;-146.24;100.00;46976.91;5090525;28;20545;-84
2023/09/29 04:06:28;;;;;;;2.17;1.97;;;;;;;-146.24;100.00;47032.53;5090514;28;20198;-83
2023/09/29 04:08:55;;;;;;;1.87;1.77;;;;;;;-146.24;100.00;46984.56;5090296;28;20629;-84
2023/09/29 04:11:22;;;;;;;4.17;1.73;;;;;;;-146.24;100.00;46998.00;5089961;28;20201;-84
2023/09/29 04:13:52;;;;;;;1.97;1.67;;;;;;;-146.24;100.00;46994.16;5089469;28;20717;-85
2023/09/29 04:16:20;;;;;;;3.43;1.50;;;;;;;-146.24;100.00;46957.72;5089884;28;20694;-85
2023/09/29 04:18:47;;;;;;;3.13;1.37;;;;;;;-146.24;100.00;46994.16;5089608;28;20247;-84
2023/09/29 04:21:15;;;;;;;3.13;2.30;;;;;;;-146.24;100.00;46992.25;5090170;28;20201;-84
2023/09/29 04:23:42;;;;;;;2.10;1.80;;;;;;;-146.24;100.00;46957.72;5092987;28;20205;-83
2023/09/29 04:26:16;;;;;;;2.40;1.97;;;;;;;-146.24;100.00;46986.50;5093929;28;20202;-85
2023/09/29 04:28:44;;;;;;;2.60;2.17;;;;;;;-146.24;100.00;46974.97;5099487;28;20201;-82
2023/09/29 04:31:13;;;;;;;4.00;2.20;;;;;;;-146.24;100.00;46971.16;5098806;28;20255;-83
2023/09/29 04:33:41;;;;;;;2.20;1.80;;;;;;;-146.24;100.00;46974.97;5093826;28;20205;-84
2023/09/29 04:36:08;;;;;;;2.73;2.00;;;;;;;-146.24;100.00;46971.16;5093755;28;20892;-86
2023/09/29 04:38:38;;;;;;;2.13;1.93;;;;;;;-146.24;100.00;46974.97;5093690;28;20293;-84
2023/09/29 04:41:06;;;;;;;2.83;2.00;;;;;;;-146.24;100.00;46978.81;5093650;28;20317;-86
2023/09/29 04:43:34;;;;;;;7.50;2.17;;;;;;;-146.24;100.00;46980.72;5107677;28;20193;-84
2023/09/29 04:46:01;;;;;;;4.00;2.67;;;;;;;-146.24;100.00;46998.00;5114195;28;20193;-83
2023/09/29 04:48:30;;;;;;;2.20;2.07;;;;;;;-146.24;99.44;46971.16;5113938;28;20198;-85
2023/09/29 04:50:58;;;;;;;4.83;2.10;;;;;;;-146.24;97.97;46963.47;5114575;28;20288;-84
2023/09/29 04:53:25;;;;;;;8.43;2.50;;;;;;;-146.24;97.24;47026.78;5113884;28;20202;-85
2023/09/29 04:55:52;;;;;;;2.80;2.40;;;;;;;-146.25;100.00;57403.91;5112971;28;20238;-84
2023/09/29 04:58:19;;;;;;;2.67;2.47;;;;;;;-146.25;100.00;57403.91;5097275;28;20195;-83
2023/09/29 05:00:58;;;;;;;4.50;2.97;;;;;;;-146.24;96.64;46950.03;5082071;28;20195;-85
2023/09/29 05:03:26;;;;;;;5.40;2.63;;;;;;;-146.24;91.43;46963.47;5077894;28;20216;-85
2023/09/29 05:05:55;;;;;;;2.87;2.67;;;;;;;-146.24;91.62;46994.16;5079630;28;20625;-81
2023/09/29 05:08:22;;;;;;;2.65;2.53;;;;;;;-146.24;92.49;47051.72;5080783;28;20206;-83
2023/09/29 05:10:50;;;;;;;5.20;2.90;;;;;;;-146.24;92.10;46992.25;5079563;28;20273;-84
2023/09/29 05:13:17;;;;;;;10.07;2.80;;;;;;;-146.24;91.36;46971.16;5083041;28;20204;-83
2023/09/29 05:15:45;;;;;;;14.60;4.28;;;;;;;-146.24;92.17;47032.53;5078423;28;20225;-82
2023/09/29 05:18:12;;;;;;;6.18;3.67;;;;;;;-146.24;93.40;47009.50;5072942;28;20232;-84
2023/09/29 05:20:39;;;;;;;3.38;2.67;;;;;;;-146.24;89.99;47001.84;5085411;28;20207;-83
2023/09/29 05:23:08;;;;;;;2.78;2.38;;;;;;;-146.24;86.70;46998.00;5072732;28;20229;-83
2023/09/29 05:25:36;;;;;;;5.22;2.50;;;;;;;-146.24;85.77;46959.63;5072306;28;20199;-85
2023/09/29 05:28:03;;;;;;;5.15;3.03;;;;;;;-146.24;86.52;46986.50;5072635;28;20208;-85
2023/09/29 05:30:31;;;;;;;5.43;2.85;;;;;;;-146.24;86.58;47045.97;5072530;28;20199;-83
2023/09/29 05:32:59;;;;;;;3.17;2.33;;;;;;;-146.24;84.67;46986.50;5072441;28;20244;-83
2023/09/29 05:35:27;;;;;;;6.05;2.67;;;;;;;-146.24;82.75;47019.09;5071013;28;20233;-85
2023/09/29 05:37:54;;;;;;;9.45;4.10;;;;;;;-146.24;79.44;46998.00;5072208;28;20255;-86
2023/09/29 05:40:23;;;;;;;12.50;4.15;;;;;;;-146.24;79.03;47017.19;5074782;28;20357;-85
2023/09/29 05:42:50;;;;;;;9.20;4.15;;;;;;;-146.24;78.17;47013.34;5072324;28;20741;-84
2023/09/29 05:45:18;;;;;;;18.95;9.80;;;;;;;-146.24;78.04;47040.22;5073521;28;20281;-85
2023/09/29 05:47:49;;;;;;;4.75;3.65;;;;;;;-146.24;77.19;47069.00;5071870;28;20240;-84
2023/09/29 05:50:16;;;;;;;7.18;5.00;;;;;;;-146.24;75.04;47017.19;5088702;28;20220;-85
2023/09/29 05:52:44;;;;;;;6.90;3.67;;;;;;;-146.24;67.29;47036.38;5072592;28;20329;-86
2023/09/29 05:55:12;;;;;;;22.95;14.13;;;;;;;-146.24;60.73;47080.50;5079652;28;20690;-85
2023/09/29 05:57:43;;;;;;;25.05;11.02;;;;;;;-146.24;60.01;47069.00;5084235;28;20248;-86
2023/09/29 06:00:13;;;;;;;6.60;4.75;;;;;;;-146.24;58.38;47069.00;5082841;28;20220;-86
2023/09/29 06:02:43;;;;;;;27.08;7.38;;;;;;;-146.24;62.92;47059.41;5091154;28;20253;-85
2023/09/29 06:05:12;;;;;;;12.20;5.88;;;;;;;-146.24;61.67;47055.56;5091055;28;20228;-86
2023/09/29 06:07:40;;;;;;;7.82;5.05;;;;;;;-146.24;59.85;47093.94;5097019;28;20325;-85
2023/09/29 06:10:08;;;;;;;22.77;11.13;;;;;;;-146.24;59.69;47067.06;5100686;28;20226;-84
2023/09/29 06:12:37;;;;;;;4.32;3.03;;;;;;;-146.24;58.73;47067.06;5096430;28;20257;-87
2023/09/29 06:15:09;;;;;;;3.13;2.90;;;;;;;-146.24;58.17;47093.94;5090146;28;20222;-85
2023/09/29 06:17:36;;;;;;;12.35;2.78;;;;;;;-146.24;56.70;47097.78;5090267;28;20279;-86
2023/09/29 06:20:04;;;;;;;2.70;2.50;;;;;;;-146.24;56.40;47067.06;5089949;28;20304;-85
2023/09/29 06:22:32;;;;;;;6.80;2.85;;;;;;;-146.24;54.07;47074.75;5089612;28;20744;-86
2023/09/29 06:24:59;;;;;;;5.28;2.65;;;;;;;-146.24;51.97;47124.63;5089659;28;20362;-86
2023/09/29 06:27:28;;;;;;;3.60;3.30;;;;;;;-146.24;49.71;47103.53;5090460;28;20226;-87
2023/09/29 06:29:55;;;;;;;10.15;3.25;;;;;;;-146.24;47.68;47138.06;5069460;28;20265;-86
2023/09/29 06:32:27;;;;;;;6.10;2.63;;;;;;;-146.24;49.75;47099.69;5079221;28;20222;-86
2023/09/29 06:34:54;;;;;;;4.65;2.80;;;;;;;-146.24;47.89;47109.28;5089572;28;20221;-86
2023/09/29 06:37:22;;;;;;;7.93;2.35;;;;;;;-146.24;46.92;47224.41;5089723;28;20234;-86
2023/09/29 06:39:50;;;;;;;7.97;2.83;;;;;;;-146.24;44.24;47163.00;5089873;28;20230;-86
2023/09/29 06:42:17;;;;;;;5.70;2.17;;;;;;;-146.24;41.25;47210.97;5089232;28;20222;-86
2023/09/29 06:44:47;;;;;;;3.97;2.17;;;;;;;-146.24;42.79;47184.09;5073907;28;20663;-86
2023/09/29 06:47:15;;;;;;;10.60;2.40;;;;;;;-146.24;40.30;47216.72;5069836;28;20223;-85
2023/09/29 06:49:43;;;;;;;3.90;2.63;;;;;;;-146.24;38.99;47237.84;5069435;28;20245;-86
2023/09/29 06:52:11;;;;;;;4.63;2.58;;;;;;;-146.24;36.26;47349.13;5069214;28;20226;-85
2023/09/29 06:54:38;;;;;;;3.35;2.70;;;;;;;-146.24;35.55;47331.84;5069421;28;20238;-86
2023/09/29 06:57:06;;;;;;;7.43;2.42;;;;;;;-146.24;33.84;47414.38;5069730;28;20230;-86
2023/09/29 06:59:35;;;;;;;2.50;2.40;;;;;;;-146.24;32.16;47435.47;5069624;28;20303;-87
2023/09/29 07:02:03;;;;;;;8.07;2.83;;;;;;;-146.25;35.99;57403.91;5075305;28;20240;-86
2023/09/29 07:04:30;;;;;;;3.42;2.75;;;;;;;-146.24;31.91;47460.41;5097782;28;20658;-87
2023/09/29 07:07:01;;;;;;;3.78;3.15;;;;;;;-146.24;30.89;47512.22;5093920;28;20236;-86
2023/09/29 07:09:28;;;;;;;6.78;3.28;;;;;;;-146.24;31.11;47529.50;5096729;28;20217;-86
2023/09/29 07:11:57;;;;;;;3.83;2.80;;;;;;;-146.24;32.38;47410.53;5097165;28;20222;-85
2023/09/29 07:14:26;;;;;;;7.07;3.03;;;;;;;-146.24;32.16;47385.59;5083917;28;20226;-84
2023/09/29 07:16:54;;;;;;;5.07;3.10;;;;;;;-146.24;31.22;47494.94;5076900;28;20931;-87
2023/09/29 07:19:21;;;;;;;6.30;2.80;;;;;;;-146.24;32.67;47374.06;5085197;28;20481;-85
2023/09/29 07:21:49;;;;;;;3.70;3.03;;;;;;;-146.24;33.71;47364.47;5108347;28;20286;-87
2023/09/29 07:24:19;;;;;;;6.43;2.95;;;;;;;-146.24;31.81;47374.06;5114240;28;20202;-87
2023/09/29 07:26:48;;;;;;;3.85;3.25;;;;;;;-146.24;32.94;47379.81;5113594;28;20220;-86
2023/09/29 07:29:16;;;;;;;6.43;2.95;;;;;;;-146.24;32.38;47477.69;5108732;28;21000;-87
2023/09/29 07:31:48;;;;;;;3.63;3.10;;;;;;;-146.24;30.19;47562.13;5105864;28;20270;-86
2023/09/29 07:34:21;;;;;;;3.55;2.30;;;;;;;-146.24;32.71;47370.22;5088837;28;20207;-87
2023/09/29 07:36:49;;;;;;;4.55;2.42;;;;;;;-146.24;30.90;47379.81;5084669;28;20633;-87
2023/09/29 07:39:20;;;;;;;11.63;2.60;;;;;;;-146.24;31.69;47402.84;5081671;28;20198;-88
2023/09/29 07:41:50;;;;;;;2.40;2.20;;;;;;;-146.24;30.92;47331.84;5080481;28;20209;-87
2023/09/29 07:44:18;;;;;;;3.38;2.35;;;;;;;-146.24;32.17;47228.25;5078665;28;20202;-86
2023/09/29 07:46:53;;;;;;;6.85;1.95;;;;;;;-146.24;32.26;47235.91;5076917;28;20207;-86
2023/09/29 07:49:40;;;;;;;;;;;;;;;;;;;;;
2023/09/29 07:52:14;;;;;;;1.63;1.52;;;;;;;-146.24;33.64;47224.41;5067566;28;20274;-86
2023/09/29 07:54:59;;;;;;;2.28;2.08;;;;;;;-146.24;35.13;47274.28;5076921;28;20206;-87
2023/09/29 07:57:27;;;;;;;5.25;3.03;;;;;;;-146.24;37.22;47151.50;5079702;28;20272;-87
2023/09/29 07:59:56;;;;;;;4.65;2.50;;;;;;;-146.24;36.10;47203.28;5081576;28;20203;-86
2023/09/29 08:02:27;;;;;;;7.45;2.55;;;;;;;-146.24;35.60;47237.84;5079741;28;20238;-86
2023/09/29 08:04:55;;;;;;;4.75;2.65;;;;;;;-146.24;35.25;47228.25;5081268;28;20271;-87
2023/09/29 08:07:23;;;;;;;5.90;2.05;;;;;;;-146.24;34.55;47232.06;5086725;28;20218;-85
2023/09/29 08:09:56;;;;;;;2.17;1.75;;;;;;;-146.24;34.64;47201.38;5085202;28;20578;-86
2023/09/29 08:12:25;;;;;;;5.32;2.13;;;;;;;-146.24;35.13;47210.97;5080592;28;20199;-87
2023/09/29 08:14:54;;;;;;;2.22;1.92;;;;;;;-146.24;32.78;47232.06;5080602;28;20237;-87
2023/09/29 08:17:21;;;;;;;3.15;1.75;;;;;;;-146.24;32.10;47280.03;5077934;28;20237;-87
2023/09/29 08:19:52;;;;;;;3.03;2.10;;;;;;;-146.24;31.75;47216.72;5078810;28;20763;-87
2023/09/29 08:22:20;;;;;;;2.88;1.52;;;;;;;-146.24;31.36;47326.09;5082867;28;20204;-87
2023/09/29 08:24:52;;;;;;;5.38;1.65;;;;;;;-146.24;30.26;47264.69;5082849;28;20675;-87
2023/09/29 08:27:24;;;;;;;4.70;1.60;;;;;;;-146.24;30.32;47274.28;5080573;28;20209;-87
2023/09/29 08:29:51;;;;;;;1.48;1.42;;;;;;;-146.24;29.11;47303.06;5079902;28;20229;-87
2023/09/29 08:32:19;;;;;;;3.10;1.48;;;;;;;-146.24;29.41;47278.13;5082061;28;20260;-88
2023/09/29 08:34:47;;;;;;;5.18;1.80;;;;;;;-146.24;29.05;47301.16;5082473;28;20203;-86
2023/09/29 08:37:16;;;;;;;2.72;1.50;;;;;;;-146.24;30.30;47253.19;5082207;28;20294;-85
2023/09/29 08:39:44;;;;;;;1.75;1.52;;;;;;;-146.24;30.53;47241.66;5081211;28;20230;-87
2023/09/29 08:42:27;;;;;;;1.30;1.30;;;;;;;-146.24;30.38;47274.28;5081781;28;20195;-86
2023/09/29 08:44:59;;;;;;;2.80;1.60;;;;;;;-146.24;30.63;47220.56;5083037;28;20232;-85
2023/09/29 08:47:31;;;;;;;5.65;1.50;;;;;;;-146.24;31.73;47289.63;5082718;28;20218;-87
2023/09/29 08:50:00;;;;;;;1.38;1.27;;;;;;;-146.24;31.36;47182.19;5082913;28;20218;-86
2023/09/29 08:52:30;;;;;;;1.17;1.17;;;;;;;-146.24;31.93;47258.94;5084655;28;20656;-86
2023/09/29 08:54:58;;;;;;;1.13;1.13;;;;;;;-146.24;31.20;47172.59;5083231;28;20225;-86
2023/09/29 08:57:32;;;;;;;4.13;1.70;;;;;;;-146.24;31.12;47201.38;5081927;28;20254;-87
2023/09/29 09:00:02;;;;;;;5.00;1.52;;;;;;;-146.24;30.76;47163.00;5082720;28;20245;-86
2023/09/29 09:02:32;;;;;;;2.60;1.33;;;;;;;-146.24;31.08;47210.97;5083327;28;20646;-88
2023/09/29 09:05:01;;;;;;;3.72;1.92;;;;;;;-146.24;30.90;47257.03;5082704;28;20635;-85
2023/09/29 09:07:29;;;;;;;1.15;1.15;;;;;;;-146.24;32.20;47262.78;5078057;28;20194;-84
2023/09/29 09:09:58;;;;;;;1.25;1.15;;;;;;;-146.24;32.24;47151.50;5080834;28;20256;-85
2023/09/29 09:12:38;;;;;;;1.33;1.33;;;;;;;-146.24;32.87;47170.69;5080962;28;20201;-85
2023/09/29 09:15:09;;;;;;;10.57;1.85;;;;;;;-146.24;33.07;47155.34;5119595;28;20270;-91
2023/09/29 09:17:44;;;;;;;5.38;1.63;;;;;;;-146.24;33.61;47149.56;5121432;28;20241;-92
2023/09/29 09:20:14;;;;;;;2.72;1.30;;;;;;;-146.24;33.56;47186.03;5123216;28;20220;-92
2023/09/29 09:22:49;;;;;;;1.77;1.63;;;;;;;-146.24;32.23;47174.53;5124946;28;20647;-90
2023/09/29 09:25:33;;;;;;;2.20;1.60;;;;;;;-146.24;32.93;47172.59;5123164;28;20197;-90
2023/09/29 09:28:07;;;;;;;5.90;1.52;;;;;;;-146.24;33.29;47186.03;5123212;28;20193;-92
2023/09/29 09:30:45;;;;;;;4.43;1.75;;;;;;;-146.24;31.36;47239.75;5127823;28;20194;-91
2023/09/29 09:33:21;;;;;;;5.43;1.63;;;;;;;-146.24;31.04;47262.78;5125978;28;20240;-90
2023/09/29 09:35:51;;;;;;;2.25;1.40;;;;;;;-146.24;31.50;47205.22;5125509;28;20231;-91
2023/09/29 09:38:32;;;;;;;2.22;1.55;;;;;;;-146.24;31.63;47251.25;5124494;28;20289;-90
2023/09/29 09:41:07;;;;;;;1.38;1.27;;;;;;;-146.24;31.33;47159.16;5125431;28;20194;-91
2023/09/29 09:43:43;;;;;;;3.53;1.67;;;;;;;-146.24;31.06;47237.84;5126092;28;20200;-91
2023/09/29 09:46:17;;;;;;;2.05;1.95;;;;;;;-146.24;30.81;47145.75;5126346;28;20300;-91
2023/09/29 09:48:57;;;;;;;2.80;2.20;;;;;;;-146.24;31.76;47138.06;5125298;28;20196;-92
2023/09/29 09:51:35;;;;;;;3.70;1.33;;;;;;;-146.24;32.29;47234.00;5125417;28;20193;-90
2023/09/29 09:54:09;;;;;;;1.85;1.67;;;;;;;-146.24;31.86;47168.75;5127599;28;20220;-91
2023/09/29 09:57:04;;;;;;;2.95;1.80;;;;;;;-146.24;31.63;47184.09;5126869;28;20225;-91
2023/09/29 09:59:45;;;;;;;3.20;1.83;;;;;;;-146.24;31.40;47178.34;5135968;28;20227;-91
2023/09/29 10:02:33;;;;;;;2.10;2.00;;;;;;;-146.24;31.16;47207.13;5133948;28;20235;-91
2023/09/29 10:05:22;;;;;;;5.72;2.00;;;;;;;-146.24;31.46;47201.38;5127787;28;20201;-90
2023/09/29 10:07:55;;;;;;;2.33;1.92;;;;;;;-146.24;32.07;47276.22;5125049;28;20205;-90
2023/09/29 10:13:42;;;;;;;2.85;1.77;;;;;;;-146.25;100.00;57403.91;5119437;28;20197;-90
2023/09/29 10:16:26;;;;;;;3.20;2.22;;;;;;;-146.25;100.00;57403.91;5122094;28;20262;-90
2023/09/29 10:19:10;;;;;;;4.35;2.13;;;;;;;-146.25;100.00;57403.91;5102779;28;20227;-89
2023/09/29 10:21:53;;;;;;;5.70;2.25;;;;;;;-146.25;100.00;57403.91;5081374;28;20226;-90
2023/09/29 10:25:09;;;;;;;6.20;1.90;;;;;;;-146.25;100.00;57403.91;5114776;28;20717;-90
2023/09/29 10:31:21;;;;;;;4.68;2.13;;;;;;;-146.25;100.00;57403.91;5080803;28;20580;-88
2023/09/29 10:34:16;;;;;;;2.92;1.90;;;;;;;-146.25;100.00;57403.91;5108451;28;20237;-89
2023/09/29 10:36:55;;;;;;;3.13;2.20;;;;;;;-146.25;100.00;57403.91;5118334;28;20245;-90
2023/09/29 10:45:03;;;;;;;3.22;2.10;;;;;;;-146.25;100.00;57403.91;5118911;28;20217;-90
2023/09/29 10:47:40;;;;;;;4.68;1.95;;;;;;;-146.25;100.00;57403.91;5113017;28;20228;-90
2023/09/29 10:50:13;;;;;;;2.20;2.10;;;;;;;-146.25;100.00;57403.91;5113905;28;20290;-91
2023/09/29 10:52:46;;;;;;;5.07;2.00;;;;;;;-146.25;100.00;57403.91;5112052;28;20320;-90
2023/09/29 10:55:27;;;;;;;2.75;2.28;;;;;;;-146.25;100.00;57403.91;5116786;28;20297;-90
2023/09/29 10:58:04;;;;;;;2.13;2.03;;;;;;;-146.25;100.00;57403.91;5114163;28;20244;-89
2023/09/29 11:00:42;;;;;;;;;;;;;;;;;;;;;
2023/09/29 11:03:21;;;;;;;3.03;2.25;;;;;;;-146.25;100.00;57403.91;5110011;28;20226;-92
2023/09/29 11:09:19;;;;;;;;;;;;;;;;;;;;;
2023/09/29 11:11:50;;;;;;;3.60;2.10;;;;;;;-146.25;100.00;57403.91;5082336;28;20221;-90
2023/09/29 11:14:29;;;;;;;2.78;2.58;;;;;;;-146.25;100.00;57403.91;5080875;28;20558;-90
2023/09/29 11:17:07;;;;;;;2.15;2.03;;;;;;;-146.25;100.00;57403.91;5092611;28;20620;-91
2023/09/29 11:19:58;;;;;;;3.58;2.30;;;;;;;-146.25;100.00;57403.91;5101608;28;20245;-93
2023/09/29 11:22:31;;;;;;;3.70;2.33;;;;;;;-146.25;100.00;57403.91;5096834;28;20214;-89
2023/09/29 11:25:11;;;;;;;4.80;2.78;;;;;;;-146.25;100.00;57403.91;5094969;28;20229;-91
2023/09/29 11:27:43;;;;;;;5.57;2.15;;;;;;;-146.25;100.00;57403.91;5095577;28;20657;-89
2023/09/29 11:30:16;;;;;;;3.80;1.92;;;;;;;-146.25;100.00;57403.91;5095906;28;20214;-88
2023/09/29 11:32:44;;;;;;;2.47;2.28;;;;;;;-146.25;100.00;57403.91;5102443;28;20222;-89
2023/09/29 11:35:21;;;;;;;3.22;3.03;;;;;;;-146.25;100.00;57403.91;5118878;28;20676;-88
2023/09/29 11:38:00;;;;;;;2.72;2.53;;;;;;;-146.25;100.00;57403.91;5126245;28;20247;-88
2023/09/29 11:40:32;;;;;;;2.05;1.85;;;;;;;-146.25;100.00;57403.91;5129226;28;20217;-90
2023/09/29 11:42:59;;;;;;;2.42;2.33;;;;;;;-146.25;100.00;57403.91;5127421;28;20240;-88
2023/09/29 11:45:27;;;;;;;4.40;2.38;;;;;;;-146.25;100.00;57403.91;5125224;28;20227;-87
2023/09/29 11:47:55;;;;;;;2.60;2.17;;;;;;;-146.25;100.00;57403.91;5129038;28;20263;-90